Time,TemperatureF,DewpointF,PressureIn,WindDirection,WindDirectionDegrees,WindSpeedMPH,WindSpeedGustMPH,Humidity,HourlyPrecipIn,Conditions,Clouds,dailyrainin,SoftwareType,DateUTC
2013-04-06 00:26:00,48.9,41.0,30.08,NNW,343,2.0,-999.0,75,-99.99,,,0.00,weatherlink.com 1.10,2013-04-06 04:26:00,
2013-04-06 00:41:00,49.3,40.0,30.09,NNE,18,3.0,-999.0,70,-99.99,,,0.00,weatherlink.com 1.10,2013-04-06 04:41:00,
2013-04-06 00:56:00,49.3,42.0,30.09,NW,314,1.0,-999.0,75,-99.99,,,0.00,weatherlink.com 1.10,2013-04-06 04:56:00,
2013-04-06 01:11:00,48.1,42.0,30.09,NW,314,0.0,-999.0,79,-99.99,,,0.00,weatherlink.com 1.10,2013-04-06 05:11:00,
2013-04-06 01:26:00,47.3,40.0,30.09,NNW,336,4.0,-999.0,77,-99.99,,,0.00,weatherlink.com 1.10,2013-04-06 05:26:00,
2013-04-06 01:42:00,47.1,41.0,30.09,NNW,347,1.0,-999.0,79,-99.99,,,0.00,weatherlink.com 1.10,2013-04-06 05:42:00,
2013-04-06 01:56:00,46.9,41.0,30.09,NNW,344,0.0,-999.0,80,-99.99,,,0.00,weatherlink.com 1.10,2013-04-06 05:56:00,
2013-04-06 02:12:00,46.3,40.0,30.09,NNW,344,0.0,-999.0,80,-99.99,,,0.00,weatherlink.com 1.10,2013-04-06 06:12:00,
2013-04-06 02:27:00,45.7,41.0,30.09,NNW,344,0.0,-999.0,82,-99.99,,,0.00,weatherlink.com 1.10,2013-04-06 06:27:00,
2013-04-06 02:42:00,45.2,41.0,30.09,NNW,344,0.0,-999.0,85,-99.99,,,0.00,weatherlink.com 1.10,2013-04-06 06:42:00,
2013-04-06 02:57:00,44.6,40.0,30.10,NNW,344,0.0,-999.0,85,-99.99,,,0.00,weatherlink.com 1.10,2013-04-06 06:57:00,
2013-04-06 03:12:00,44.0,40.0,30.10,NNW,344,0.0,-999.0,86,-99.99,,,0.00,weatherlink.com 1.10,2013-04-06 07:12:00,
2013-04-06 03:27:00,43.4,40.0,30.09,NNW,344,2.0,-999.0,86,-99.99,,,0.00,weatherlink.com 1.10,2013-04-06 07:27:00,
2013-04-06 03:57:00,42.4,39.0,30.09,NNW,344,1.0,-999.0,87,-99.99,,,0.00,weatherlink.com 1.10,2013-04-06 07:57:00,
2013-04-06 04:12:00,41.8,39.0,30.09,NNW,344,1.0,-999.0,88,-99.99,,,0.00,weatherlink.com 1.10,2013-04-06 08:12:00,
2013-04-06 04:28:00,41.4,38.0,30.09,NNW,344,0.0,-999.0,88,-99.99,,,0.00,weatherlink.com 1.10,2013-04-06 08:28:00,
2013-04-06 04:42:00,41.1,38.0,30.09,NNW,344,0.0,-999.0,89,-99.99,,,0.00,weatherlink.com 1.10,2013-04-06 08:42:00,
2013-04-06 04:57:00,40.7,38.0,30.10,NNW,344,0.0,-999.0,90,-99.99,,,0.00,weatherlink.com 1.10,2013-04-06 08:57:00,
2013-04-06 05:27:00,40.0,37.0,30.11,NNW,344,0.0,-999.0,90,-99.99,,,0.00,weatherlink.com 1.10,2013-04-06 09:27:00,
2013-04-06 05:42:00,39.7,37.0,30.11,NNW,344,0.0,-999.0,91,-99.99,,,0.00,weatherlink.com 1.10,2013-04-06 09:42:00,
2013-04-06 05:57:00,39.5,37.0,30.11,NNW,344,2.0,-999.0,91,-99.99,,,0.00,weatherlink.com 1.10,2013-04-06 09:57:00,
2013-04-06 06:12:00,39.3,37.0,30.12,NNW,344,0.0,-999.0,91,-99.99,,,0.00,weatherlink.com 1.10,2013-04-06 10:12:00,
2013-04-06 06:27:00,39.2,37.0,30.12,NNW,344,1.0,-999.0,92,-99.99,,,0.00,weatherlink.com 1.10,2013-04-06 10:27:00,
2013-04-06 06:42:00,39.0,37.0,30.12,NNW,344,0.0,-999.0,92,-99.99,,,0.00,weatherlink.com 1.10,2013-04-06 10:42:00,
2013-04-06 06:57:00,38.8,37.0,30.13,NNW,344,0.0,-999.0,92,-99.99,,,0.00,weatherlink.com 1.10,2013-04-06 10:57:00,
2013-04-06 07:12:00,38.7,37.0,30.14,NNW,344,0.0,-999.0,92,-99.99,,,0.00,weatherlink.com 1.10,2013-04-06 11:12:00,
2013-04-06 07:27:00,38.6,37.0,30.15,NNW,344,0.0,-999.0,93,-99.99,,,0.00,weatherlink.com 1.10,2013-04-06 11:27:00,
2013-04-06 07:42:00,38.6,37.0,30.16,NNW,344,0.0,-999.0,93,-99.99,,,0.00,weatherlink.com 1.10,2013-04-06 11:42:00,
2013-04-06 07:57:00,38.8,37.0,30.17,NNW,344,0.0,-999.0,93,-99.99,,,0.00,weatherlink.com 1.10,2013-04-06 11:57:00,
2013-04-06 08:12:00,39.1,37.0,30.17,NNW,344,0.0,-999.0,93,-99.99,,,0.00,weatherlink.com 1.10,2013-04-06 12:12:00,
2013-04-06 08:27:00,39.6,38.0,30.18,NNW,344,0.0,-999.0,94,-99.99,,,0.00,weatherlink.com 1.10,2013-04-06 12:27:00,
2013-04-06 08:43:00,40.4,39.0,30.18,NNW,344,0.0,-999.0,94,-99.99,,,0.00,weatherlink.com 1.10,2013-04-06 12:43:00,
2013-04-06 08:58:00,41.5,40.0,30.18,East,94,3.0,-999.0,95,-99.99,,,0.00,weatherlink.com 1.10,2013-04-06 12:58:00,
2013-04-06 09:13:00,43.5,42.0,30.18,ENE,60,1.0,-999.0,95,-99.99,,,0.00,weatherlink.com 1.10,2013-04-06 13:13:00,
2013-04-06 09:28:00,46.1,44.0,30.19,NE,42,0.0,-999.0,92,-99.99,,,0.00,weatherlink.com 1.10,2013-04-06 13:28:00,
2013-04-06 09:43:00,49.9,44.0,30.19,NE,54,0.0,-999.0,81,-99.99,,,0.00,weatherlink.com 1.10,2013-04-06 13:43:00,
2013-04-06 09:58:00,54.0,46.0,30.19,SSE,159,0.0,-999.0,73,-99.99,,,0.00,weatherlink.com 1.10,2013-04-06 13:58:00,
2013-04-06 10:13:00,57.5,47.0,30.19,East,85,3.0,-999.0,69,-99.99,,,0.00,weatherlink.com 1.10,2013-04-06 14:13:00,
2013-04-06 10:28:00,58.9,46.0,30.20,ENE,77,3.0,-999.0,63,-99.99,,,0.00,weatherlink.com 1.10,2013-04-06 14:28:00,
2013-04-06 10:43:00,60.5,44.0,30.20,NNE,20,5.0,-999.0,55,-99.99,,,0.00,weatherlink.com 1.10,2013-04-06 14:43:00,
2013-04-06 10:58:00,62.2,43.0,30.20,North,349,0.0,-999.0,49,-99.99,,,0.00,weatherlink.com 1.10,2013-04-06 14:58:00,
2013-04-06 11:13:00,63.1,42.0,30.20,NE,49,7.0,-999.0,46,-99.99,,,0.00,weatherlink.com 1.10,2013-04-06 15:13:00,
2013-04-06 11:28:00,63.8,40.0,30.20,SSE,165,3.0,-999.0,42,-99.99,,,0.00,weatherlink.com 1.10,2013-04-06 15:28:00,
2013-04-06 11:43:00,64.5,42.0,30.20,SW,234,1.0,-999.0,44,-99.99,,,0.00,weatherlink.com 1.10,2013-04-06 15:43:00,
2013-04-06 11:58:00,64.5,41.0,30.20,SE,142,2.0,-999.0,42,-99.99,,,0.00,weatherlink.com 1.10,2013-04-06 15:58:00,
2013-04-06 12:13:00,66.1,41.0,30.20,SSE,163,4.0,-999.0,40,-99.99,,,0.00,weatherlink.com 1.10,2013-04-06 16:13:00,
2013-04-06 12:28:00,66.3,41.0,30.20,ESE,110,3.0,-999.0,40,-99.99,,,0.00,weatherlink.com 1.10,2013-04-06 16:28:00,
2013-04-06 12:43:00,67.5,42.0,30.19,South,189,2.0,-999.0,40,-99.99,,,0.00,weatherlink.com 1.10,2013-04-06 16:43:00,
2013-04-06 13:13:00,68.1,41.0,30.18,South,171,5.0,-999.0,37,-99.99,,,0.00,weatherlink.com 1.10,2013-04-06 17:13:00,
2013-04-06 13:58:00,69.6,40.0,30.17,ENE,76,4.0,-999.0,34,-99.99,,,0.00,weatherlink.com 1.10,2013-04-06 17:58:00,
2013-04-06 14:13:00,69.5,41.0,30.16,NE,39,1.0,-999.0,35,-99.99,,,0.00,weatherlink.com 1.10,2013-04-06 18:13:00,
2013-04-06 14:29:00,69.7,40.0,30.16,East,88,4.0,-999.0,34,-99.99,,,0.00,weatherlink.com 1.10,2013-04-06 18:29:00,
2013-04-06 14:58:00,71.3,40.0,30.14,South,180,1.0,-999.0,32,-99.99,,,0.00,weatherlink.com 1.10,2013-04-06 18:58:00,
2013-04-06 15:13:00,71.2,41.0,30.13,ESE,105,3.0,-999.0,34,-99.99,,,0.00,weatherlink.com 1.10,2013-04-06 19:13:00,
2013-04-06 15:43:00,70.2,39.0,30.12,SSW,194,1.0,-999.0,32,-99.99,,,0.00,weatherlink.com 1.10,2013-04-06 19:43:00,
2013-04-06 15:59:00,70.4,39.0,30.12,South,171,5.0,-999.0,32,-99.99,,,0.00,weatherlink.com 1.10,2013-04-06 19:59:00,
2013-04-06 16:14:00,70.5,39.0,30.11,West,267,2.0,-999.0,32,-99.99,,,0.00,weatherlink.com 1.10,2013-04-06 20:14:00,
2013-04-06 16:59:00,71.4,38.0,30.11,SSE,167,7.0,-999.0,30,-99.99,,,0.00,weatherlink.com 1.10,2013-04-06 20:59:00,
2013-04-06 17:29:00,70.9,40.0,30.10,ESE,122,2.0,-999.0,32,-99.99,,,0.00,weatherlink.com 1.10,2013-04-06 21:29:00,
2013-04-06 17:59:00,72.1,39.0,30.10,SSW,197,3.0,-999.0,30,-99.99,,,0.00,weatherlink.com 1.10,2013-04-06 21:59:00,
2013-04-06 18:29:00,70.6,40.0,30.10,SE,135,7.0,-999.0,33,-99.99,,,0.00,weatherlink.com 1.10,2013-04-06 22:29:00,
2013-04-06 18:44:00,69.9,39.0,30.10,South,170,3.0,-999.0,33,-99.99,,,0.00,weatherlink.com 1.10,2013-04-06 22:44:00,
2013-04-06 19:14:00,68.8,41.0,30.10,SSE,150,2.0,-999.0,36,-99.99,,,0.00,weatherlink.com 1.10,2013-04-06 23:14:00,
2013-04-06 19:29:00,68.1,41.0,30.11,ESE,117,1.0,-999.0,37,-99.99,,,0.00,weatherlink.com 1.10,2013-04-06 23:29:00,
2013-04-06 19:44:00,67.4,42.0,30.11,South,171,2.0,-999.0,40,-99.99,,,0.00,weatherlink.com 1.10,2013-04-06 23:44:00,
2013-04-06 20:14:00,65.8,43.0,30.11,SSE,150,0.0,-999.0,43,-99.99,,,0.00,weatherlink.com 1.10,2013-04-07 00:14:00,
2013-04-06 20:44:00,63.4,42.0,30.10,SSE,150,0.0,-999.0,46,-99.99,,,0.00,weatherlink.com 1.10,2013-04-07 00:44:00,
2013-04-06 20:59:00,62.4,43.0,30.11,SSE,150,0.0,-999.0,49,-99.99,,,0.00,weatherlink.com 1.10,2013-04-07 00:59:00,
2013-04-06 21:14:00,61.4,43.0,30.10,SSE,150,0.0,-999.0,52,-99.99,,,0.00,weatherlink.com 1.10,2013-04-07 01:14:00,
2013-04-06 21:29:00,60.3,43.0,30.11,SSE,150,0.0,-999.0,53,-99.99,,,0.00,weatherlink.com 1.10,2013-04-07 01:29:00,
2013-04-06 21:44:00,59.6,44.0,30.11,SSE,150,0.0,-999.0,56,-99.99,,,0.00,weatherlink.com 1.10,2013-04-07 01:44:00,
2013-04-06 22:14:00,58.0,44.0,30.13,SSE,150,0.0,-999.0,60,-99.99,,,0.00,weatherlink.com 1.10,2013-04-07 02:14:00,
2013-04-06 22:29:00,57.2,44.0,30.14,SSE,150,1.0,-999.0,62,-99.99,,,0.00,weatherlink.com 1.10,2013-04-07 02:29:00,
2013-04-06 22:44:00,56.2,44.0,30.13,SSE,149,0.0,-999.0,64,-99.99,,,0.00,weatherlink.com 1.10,2013-04-07 02:44:00,
2013-04-06 22:59:00,55.5,44.0,30.14,SSE,149,0.0,-999.0,65,-99.99,,,0.00,weatherlink.com 1.10,2013-04-07 02:59:00,
2013-04-06 23:14:00,54.8,44.0,30.14,SSE,149,0.0,-999.0,66,-99.99,,,0.00,weatherlink.com 1.10,2013-04-07 03:14:00,
2013-04-06 23:29:00,53.9,43.0,30.14,SSE,149,1.0,-999.0,68,-99.99,,,0.00,weatherlink.com 1.10,2013-04-07 03:29:00,
2013-04-06 23:44:00,53.2,44.0,30.14,SSE,149,0.0,-999.0,70,-99.99,,,0.00,weatherlink.com 1.10,2013-04-07 03:44:00,
2013-04-06 23:59:00,52.6,43.0,30.14,SSE,149,1.0,-999.0,71,-99.99,,,0.00,weatherlink.com 1.10,2013-04-07 03:59:00,